Time;durP1;ratioP1;P1;durP2;ratioP2;P2;SDS_P1;SDS_P2;PMS_P1;PMS_P2;Temp;Humidity;BMP_temperature;BMP_pressure;BME280_temperature;BME280_humidity;BME280_pressure;Samples;Min_cycle;Max_cycle;Signal;HPM_P1;HPM_P2
2024/02/13 00:01:41;;;;;;;3.92;1.70;;;;;;;4.82;100.00;100123.97;5080951;28;20126;-75
2024/02/13 00:04:09;;;;;;;3.42;1.52;;;;;;;4.79;100.00;100121.59;5098122;28;20023;-75
2024/02/13 00:06:35;;;;;;;1.20;1.00;;;;;;;4.72;100.00;100122.38;5097863;28;20036;-75
2024/02/13 00:09:00;;;;;;;0.85;0.85;;;;;;;4.66;100.00;100125.63;5097595;28;20165;-75
2024/02/13 00:11:26;;;;;;;4.95;0.70;;;;;;;4.67;100.00;100124.66;5081149;28;20042;-75
2024/02/13 00:13:52;;;;;;;0.98;0.98;;;;;;;4.63;100.00;100121.44;5097430;28;20031;-75
2024/02/13 00:16:18;;;;;;;1.60;1.08;;;;;;;4.53;100.00;100123.38;5097827;28;20425;-75
2024/02/13 00:18:44;;;;;;;1.50;1.10;;;;;;;4.30;100.00;100107.84;5080767;28;20031;-75
2024/02/13 00:21:09;;;;;;;2.15;1.25;;;;;;;4.02;100.00;100111.53;5064228;28;20490;-75
2024/02/13 00:23:36;;;;;;;1.92;1.15;;;;;;;3.82;100.00;100124.13;5080742;28;20035;-75
2024/02/13 00:26:02;;;;;;;4.07;1.20;;;;;;;3.73;100.00;100113.38;5097661;28;20039;-74
2024/02/13 00:28:29;;;;;;;1.48;1.08;;;;;;;3.69;100.00;100122.63;5097596;28;20047;-75
2024/02/13 00:30:54;;;;;;;1.75;1.33;;;;;;;3.64;100.00;100116.06;5097493;28;20070;-74
2024/02/13 00:33:40;;;;;;;3.08;1.10;;;;;;;3.52;100.00;100118.09;5100414;28;20024;-75
2024/02/13 00:36:12;;;;;;;2.47;1.50;;;;;;;3.42;100.00;100131.41;5098715;28;20031;-75
2024/02/13 00:38:40;;;;;;;1.75;1.38;;;;;;;3.38;100.00;100124.69;5096890;28;20030;-75
2024/02/13 00:41:06;;;;;;;3.33;1.52;;;;;;;3.41;100.00;100121.75;5097630;28;20031;-75
2024/02/13 00:43:32;;;;;;;2.88;1.40;;;;;;;3.51;100.00;100122.56;5080359;28;20046;-75
2024/02/13 00:45:58;;;;;;;2.10;1.33;;;;;;;3.63;100.00;100114.41;5080590;28;20035;-75
2024/02/13 00:48:23;;;;;;;0.95;0.93;;;;;;;3.69;100.00;100119.97;5096592;28;20065;-75
2024/02/13 00:50:49;;;;;;;3.45;1.27;;;;;;;3.70;100.00;100126.94;5096844;28;20103;-75
2024/02/13 00:53:16;;;;;;;0.80;0.80;;;;;;;3.72;100.00;100121.50;5096678;28;20399;-75
2024/02/13 00:55:42;;;;;;;1.17;0.80;;;;;;;3.77;100.00;100116.56;5080280;28;20068;-75
2024/02/13 00:58:08;;;;;;;0.70;0.70;;;;;;;3.81;100.00;100115.31;5079991;28;20027;-75
2024/02/13 01:00:34;;;;;;;1.13;0.82;;;;;;;3.85;100.00;100113.19;5097016;28;20110;-75
2024/02/13 01:03:01;;;;;;;4.53;1.35;;;;;;;3.88;100.00;100112.88;5079979;28;20365;-75
2024/02/13 01:05:30;;;;;;;2.13;1.30;;;;;;;3.92;100.00;100116.94;5096969;28;20036;-75
2024/02/13 01:07:57;;;;;;;3.55;1.17;;;;;;;3.93;100.00;100119.41;5112940;28;20490;-75
2024/02/13 01:10:23;;;;;;;1.65;1.13;;;;;;;3.94;100.00;100112.28;5096641;28;20027;-74
2024/02/13 01:12:50;;;;;;;0.77;0.77;;;;;;;3.96;100.00;100110.31;5096198;28;20533;-74
2024/02/13 01:15:16;;;;;;;3.72;1.13;;;;;;;3.99;100.00;100119.81;5096896;28;20051;-74
2024/02/13 01:17:43;;;;;;;1.75;1.20;;;;;;;3.98;100.00;100116.31;5096599;28;20039;-74
2024/02/13 01:20:11;;;;;;;1.85;1.27;;;;;;;3.94;100.00;100113.13;5096329;28;20028;-75
2024/02/13 01:22:37;;;;;;;1.65;1.17;;;;;;;3.91;100.00;100113.41;5113014;28;20032;-74
2024/02/13 01:25:09;;;;;;;1.50;0.90;;;;;;;3.93;100.00;100113.28;5096388;28;20043;-75
2024/02/13 01:27:38;;;;;;;3.10;1.38;;;;;;;3.93;100.00;100111.44;5114062;28;20028;-75
2024/02/13 01:30:05;;;;;;;1.60;1.02;;;;;;;3.95;100.00;100116.63;5113065;28;20082;-75
2024/02/13 01:32:31;;;;;;;4.88;1.20;;;;;;;3.93;100.00;100108.78;5080188;28;20081;-75
2024/02/13 01:34:57;;;;;;;3.72;1.20;;;;;;;3.94;100.00;100110.47;5096366;28;20063;-75
2024/02/13 01:37:23;;;;;;;3.65;1.13;;;;;;;3.97;100.00;100109.34;5079401;28;20116;-75
2024/02/13 01:39:49;;;;;;;1.25;1.13;;;;;;;3.97;100.00;100110.16;5096189;28;20074;-75
2024/02/13 01:42:16;;;;;;;1.20;1.00;;;;;;;3.96;100.00;100103.16;5095654;28;20051;-75
2024/02/13 01:44:43;;;;;;;0.60;0.60;;;;;;;3.99;100.00;100101.19;5113022;28;20023;-75
2024/02/13 01:47:09;;;;;;;1.73;0.98;;;;;;;3.94;100.00;100096.31;5079174;28;20027;-74
2024/02/13 01:49:35;;;;;;;1.30;1.00;;;;;;;3.90;100.00;100101.09;5112556;28;20472;-75
2024/02/13 01:52:01;;;;;;;2.67;1.50;;;;;;;3.81;100.00;100093.16;5112622;28;20034;-75
2024/02/13 01:54:27;;;;;;;2.28;1.40;;;;;;;3.77;100.00;100095.28;5078658;28;20036;-75
2024/02/13 01:56:53;;;;;;;2.30;0.90;;;;;;;3.67;100.00;100094.50;5079242;28;20376;-74
2024/02/13 01:59:19;;;;;;;1.98;0.98;;;;;;;3.54;100.00;100100.16;5112802;28;20114;-75
2024/02/13 02:01:45;;;;;;;2.45;1.10;;;;;;;3.36;100.00;100102.78;5079102;28;20126;-75
2024/02/13 02:04:11;;;;;;;3.45;1.30;;;;;;;3.21;100.00;100097.06;5078596;28;20464;-75
2024/02/13 02:06:37;;;;;;;1.40;0.98;;;;;;;3.06;100.00;100099.34;5079907;28;20402;-75
2024/02/13 02:09:05;;;;;;;1.45;0.98;;;;;;;2.85;100.00;100096.03;5078871;28;20081;-74
2024/02/13 02:11:32;;;;;;;6.47;1.30;;;;;;;2.66;100.00;100098.72;5079495;28;20027;-75
2024/02/13 02:13:58;;;;;;;4.25;1.30;;;;;;;2.52;100.00;100098.16;5079217;28;20035;-76
2024/02/13 02:16:45;;;;;;;5.72;1.20;;;;;;;2.40;100.00;100094.81;5098539;28;20105;-75
2024/02/13 02:19:10;;;;;;;1.63;1.27;;;;;;;2.41;100.00;100098.31;5097571;28;20031;-75
2024/02/13 02:21:36;;;;;;;1.15;0.85;;;;;;;2.47;100.00;100104.88;5083109;28;20043;-75
2024/02/13 02:24:03;;;;;;;3.85;1.40;;;;;;;2.36;100.00;100092.59;5083052;28;20036;-75
2024/02/13 02:26:47;;;;;;;1.90;1.20;;;;;;;2.32;100.00;100099.97;5117619;28;20047;-75
2024/02/13 02:29:19;;;;;;;1.58;0.90;;;;;;;2.38;100.00;100095.91;5100474;28;20032;-75
2024/02/13 02:31:48;;;;;;;9.95;1.13;;;;;;;2.53;100.00;100099.00;5099877;28;20043;-75
2024/02/13 02:34:18;;;;;;;1.80;1.13;;;;;;;2.63;100.00;100103.31;5082882;28;20035;-75
2024/02/13 02:36:45;;;;;;;4.03;1.38;;;;;;;2.67;100.00;100097.72;5100507;28;20059;-75
2024/02/13 02:39:11;;;;;;;1.95;1.02;;;;;;;2.67;100.00;100103.03;5099415;28;20032;-75
2024/02/13 02:41:38;;;;;;;2.97;1.40;;;;;;;2.70;100.00;100100.97;5099108;28;20440;-75
2024/02/13 02:44:05;;;;;;;2.00;0.88;;;;;;;2.75;100.00;100095.19;5099710;28;20028;-75
2024/02/13 02:46:31;;;;;;;1.83;1.30;;;;;;;2.80;100.00;100091.13;5099873;28;20460;-75
2024/02/13 02:48:58;;;;;;;0.93;0.77;;;;;;;2.87;100.00;100096.72;5082382;28;20027;-75
2024/02/13 02:51:23;;;;;;;1.02;0.88;;;;;;;2.87;100.00;100107.34;5082467;28;20039;-75
2024/02/13 02:53:49;;;;;;;0.75;0.75;;;;;;;2.92;100.00;100099.81;5082486;28;20031;-75
2024/02/13 02:56:15;;;;;;;0.60;0.60;;;;;;;3.04;100.00;100108.44;5082382;28;20031;-74
2024/02/13 02:58:42;;;;;;;8.25;1.52;;;;;;;3.09;100.00;100108.84;5099358;28;20050;-74
2024/02/13 03:01:08;;;;;;;1.48;0.93;;;;;;;3.14;100.00;100097.78;5099275;28;20040;-75
2024/02/13 03:03:37;;;;;;;2.80;0.85;;;;;;;3.19;100.00;100095.53;5066281;28;20061;-75
2024/02/13 03:06:07;;;;;;;6.13;1.63;;;;;;;3.25;100.00;100089.63;5082204;28;20036;-75
2024/02/13 03:08:33;;;;;;;1.10;0.93;;;;;;;3.31;100.00;100091.75;5115569;28;20024;-75
2024/02/13 03:10:59;;;;;;;0.77;0.77;;;;;;;3.36;100.00;100086.81;5098628;28;20069;-75
2024/02/13 03:13:25;;;;;;;9.30;1.45;;;;;;;3.39;100.00;100083.03;5115565;28;20066;-75
2024/02/13 03:15:51;;;;;;;4.18;1.10;;;;;;;3.40;100.00;100082.88;5098498;28;20124;-75
2024/02/13 03:18:17;;;;;;;0.77;0.73;;;;;;;3.33;100.00;100083.59;5098584;28;20466;-75
2024/02/13 03:20:44;;;;;;;4.93;1.20;;;;;;;3.21;100.00;100086.44;5098844;28;20471;-75
2024/02/13 03:23:10;;;;;;;0.73;0.73;;;;;;;3.06;100.00;100085.22;5081865;28;20046;-75
2024/02/13 03:25:35;;;;;;;1.08;0.98;;;;;;;2.93;100.00;100076.72;5081904;28;20031;-75
2024/02/13 03:28:18;;;;;;;1.58;1.10;;;;;;;2.81;100.00;100081.38;5086396;28;20032;-75
2024/02/13 03:30:43;;;;;;;0.85;0.80;;;;;;;2.77;100.00;100080.81;5097976;28;20035;-74
2024/02/13 03:33:09;;;;;;;0.85;0.70;;;;;;;2.78;100.00;100077.19;5098593;28;20071;-74
2024/02/13 03:35:35;;;;;;;2.83;1.35;;;;;;;2.74;100.00;100064.34;5081410;28;20391;-74
2024/02/13 03:38:00;;;;;;;2.55;1.55;;;;;;;2.67;100.00;100056.09;5098322;28;20365;-75
2024/02/13 03:40:26;;;;;;;0.80;0.80;;;;;;;2.66;100.00;100062.38;5081335;28;20035;-75
2024/02/13 03:42:51;;;;;;;1.20;0.90;;;;;;;2.70;100.00;100062.94;5098262;28;20028;-75
2024/02/13 03:45:17;;;;;;;0.50;0.50;;;;;;;2.77;100.00;100066.69;5081464;28;20093;-74
2024/02/13 03:47:53;;;;;;;2.80;1.08;;;;;;;2.79;100.00;100065.59;5099606;28;20521;-74
2024/02/13 03:50:19;;;;;;;2.70;1.05;;;;;;;2.78;100.00;100066.56;5081061;28;20024;-75
2024/02/13 03:52:45;;;;;;;5.57;1.40;;;;;;;2.71;100.00;100052.19;5081101;28;20030;-74
2024/02/13 03:55:10;;;;;;;0.95;0.93;;;;;;;2.69;100.00;100045.34;5098144;28;20028;-75
2024/02/13 03:57:36;;;;;;;1.42;0.95;;;;;;;2.79;100.00;100051.47;5098106;28;20043;-75
2024/02/13 04:00:05;;;;;;;2.30;1.10;;;;;;;2.88;100.00;100060.38;5097621;28;20034;-75
2024/02/13 04:02:33;;;;;;;1.60;0.80;;;;;;;2.93;100.00;100052.84;5114914;28;20092;-75
2024/02/13 04:04:59;;;;;;;3.47;0.88;;;;;;;3.01;100.00;100045.81;5098149;28;20039;-75
2024/02/13 04:07:25;;;;;;;5.38;1.27;;;;;;;3.08;100.00;100052.22;5097807;28;20039;-75
2024/02/13 04:09:50;;;;;;;1.52;1.02;;;;;;;3.05;100.00;100041.91;5080803;28;20475;-74
2024/02/13 04:12:16;;;;;;;1.30;0.95;;;;;;;2.96;100.00;100040.09;5080892;28;20047;-74
2024/02/13 04:14:42;;;;;;;3.28;0.88;;;;;;;2.89;100.00;100039.00;5097308;28;20027;-74
2024/02/13 04:17:09;;;;;;;1.58;1.25;;;;;;;2.86;100.00;100039.31;5097949;28;20031;-74
2024/02/13 04:19:36;;;;;;;2.00;1.00;;;;;;;2.88;100.00;100047.94;5097653;28;20084;-74
2024/02/13 04:22:02;;;;;;;3.85;1.13;;;;;;;2.90;100.00;100039.84;5114456;28;20027;-74
2024/02/13 04:24:28;;;;;;;1.17;0.90;;;;;;;2.96;100.00;100041.91;5080764;28;20038;-75
2024/02/13 04:26:53;;;;;;;0.88;0.88;;;;;;;2.98;100.00;100040.78;5080675;28;20084;-75
2024/02/13 04:29:19;;;;;;;2.20;1.00;;;;;;;2.97;100.00;100036.47;5080398;28;20068;-75
2024/02/13 04:31:45;;;;;;;1.58;1.33;;;;;;;3.00;100.00;100038.00;5080602;28;20035;-75
2024/02/13 04:34:10;;;;;;;2.10;1.30;;;;;;;3.01;100.00;100043.16;5096938;28;20027;-75
2024/02/13 04:36:39;;;;;;;2.63;1.17;;;;;;;3.01;100.00;100037.84;5097320;28;20062;-74
2024/02/13 04:39:07;;;;;;;3.00;1.10;;;;;;;3.02;100.00;100028.91;5097565;28;20498;-75
2024/02/13 04:41:35;;;;;;;3.03;1.25;;;;;;;3.02;100.00;100028.91;5080342;28;20039;-75
2024/02/13 04:44:02;;;;;;;1.67;1.10;;;;;;;2.98;100.00;100030.16;5080447;28;20437;-74
2024/02/13 04:46:28;;;;;;;0.85;0.80;;;;;;;2.93;100.00;100029.75;5080242;28;20485;-75
2024/02/13 04:48:54;;;;;;;2.50;1.15;;;;;;;2.86;100.00;100023.38;5080084;28;20066;-75
2024/02/13 04:51:19;;;;;;;0.88;0.85;;;;;;;2.84;100.00;100025.34;5063546;28;20035;-75
2024/02/13 04:53:46;;;;;;;1.65;1.10;;;;;;;2.77;100.00;100018.91;5096665;28;20031;-75
2024/02/13 04:56:13;;;;;;;0.90;0.80;;;;;;;2.75;100.00;100021.72;5081048;28;20085;-75
2024/02/13 04:58:39;;;;;;;2.30;1.30;;;;;;;2.72;100.00;100021.16;5080324;28;20463;-75
2024/02/13 05:01:09;;;;;;;2.28;1.38;;;;;;;2.73;100.00;100022.84;5096612;28;20039;-74
2024/02/13 05:08:58;;;;;;;4.57;1.33;;;;;;;2.71;100.00;100015.03;5113375;28;20499;-75
2024/02/13 05:11:25;;;;;;;8.20;1.27;;;;;;;2.70;100.00;100016.00;5096228;28;20032;-75
2024/02/13 05:13:52;;;;;;;1.83;1.00;;;;;;;2.69;100.00;100019.63;5113207;28;20481;-75
2024/02/13 05:16:19;;;;;;;4.38;1.20;;;;;;;2.67;100.00;100003.00;5096737;28;20039;-75
2024/02/13 05:18:45;;;;;;;1.40;1.20;;;;;;;2.64;100.00;100004.13;5079475;28;20042;-75
2024/02/13 05:21:20;;;;;;;1.15;0.93;;;;;;;2.63;100.00;100004.28;5096667;28;20042;-75
2024/02/13 05:23:50;;;;;;;1.42;1.20;;;;;;;2.59;100.00;100010.84;5080780;28;20472;-74
2024/02/13 05:26:17;;;;;;;1.60;1.42;;;;;;;2.49;100.00;100007.38;5112941;28;20020;-75
2024/02/13 05:28:44;;;;;;;0.95;0.85;;;;;;;2.40;100.00;100007.25;5096036;28;20043;-75
2024/02/13 05:31:10;;;;;;;1.77;1.42;;;;;;;2.39;100.00;100007.41;5079531;28;20043;-75
2024/02/13 05:33:36;;;;;;;3.05;1.23;;;;;;;2.39;100.00;100010.88;5096363;28;20061;-74
2024/02/13 05:36:03;;;;;;;2.83;1.15;;;;;;;2.39;100.00;100012.72;5079469;28;20475;-75
2024/02/13 05:38:37;;;;;;;1.83;1.27;;;;;;;2.40;100.00;100014.38;5096991;28;20176;-75
2024/02/13 05:41:04;;;;;;;3.22;0.95;;;;;;;2.47;100.00;100006.69;5079529;28;20027;-75
2024/02/13 05:43:30;;;;;;;4.93;1.52;;;;;;;2.56;100.00;100009.31;5080370;28;20031;-75
2024/02/13 05:45:56;;;;;;;4.72;1.17;;;;;;;2.62;100.00;100008.75;5079409;28;20490;-74
2024/02/13 05:48:24;;;;;;;1.67;1.25;;;;;;;2.66;100.00;100003.16;5112581;28;20019;-75
2024/02/13 05:50:51;;;;;;;1.73;1.08;;;;;;;2.66;100.00;99998.69;5096222;28;20065;-74
2024/02/13 05:53:17;;;;;;;1.23;0.82;;;;;;;2.56;100.00;99982.78;5079204;28;20035;-75
2024/02/13 05:55:43;;;;;;;2.05;1.05;;;;;;;2.55;100.00;99994.38;5078942;28;20039;-75
2024/02/13 05:58:08;;;;;;;0.77;0.77;;;;;;;2.53;100.00;99992.84;5079220;28;20378;-75
2024/02/13 06:00:34;;;;;;;0.70;0.68;;;;;;;2.50;100.00;99988.66;5096585;28;20043;-74
2024/02/13 06:03:01;;;;;;;1.27;1.17;;;;;;;2.51;100.00;99986.84;5095719;28;20494;-75
2024/02/13 06:05:28;;;;;;;1.60;1.20;;;;;;;2.55;100.00;99982.94;5096163;28;20043;-74
2024/02/13 06:07:53;;;;;;;4.07;1.55;;;;;;;2.52;100.00;99981.41;5079503;28;20149;-75
2024/02/13 06:10:20;;;;;;;3.58;1.50;;;;;;;2.57;100.00;99971.19;5079077;28;20115;-75
2024/02/13 06:12:45;;;;;;;3.78;1.17;;;;;;;2.63;100.00;99977.75;5112357;28;20034;-74
2024/02/13 06:15:11;;;;;;;3.60;1.35;;;;;;;2.60;100.00;99975.38;5095938;28;20039;-75
2024/02/13 06:17:38;;;;;;;1.80;1.20;;;;;;;2.53;100.00;99975.09;5079261;28;20035;-75
2024/02/13 06:20:05;;;;;;;3.05;1.00;;;;;;;2.51;100.00;99977.06;5112502;28;20032;-75
2024/02/13 06:22:32;;;;;;;1.27;0.85;;;;;;;2.51;100.00;99973.56;5112693;28;20036;-74
2024/02/13 06:25:00;;;;;;;8.95;1.17;;;;;;;2.48;100.00;99969.38;5062312;28;20040;-75
2024/02/13 06:27:26;;;;;;;4.43;1.10;;;;;;;2.53;100.00;99974.28;5078980;28;20044;-75
2024/02/13 06:29:51;;;;;;;3.00;1.33;;;;;;;2.58;100.00;99977.34;5078690;28;20050;-75
2024/02/13 06:32:17;;;;;;;1.73;1.20;;;;;;;2.60;100.00;99972.72;5078970;28;20040;-75
2024/02/13 06:34:43;;;;;;;4.68;1.00;;;;;;;2.60;100.00;99970.06;5078620;28;20126;-75
2024/02/13 06:37:10;;;;;;;10.32;1.55;;;;;;;2.64;100.00;99972.28;5095588;28;20440;-75
2024/02/13 06:39:36;;;;;;;1.65;1.13;;;;;;;2.67;100.00;99968.50;5096492;28;20032;-74
2024/02/13 06:42:02;;;;;;;5.00;1.65;;;;;;;2.75;100.00;99967.78;5078829;28;20038;-75
2024/02/13 06:44:30;;;;;;;4.40;1.15;;;;;;;2.85;100.00;99965.94;5078499;28;20066;-75
2024/02/13 06:46:57;;;;;;;1.25;1.15;;;;;;;2.93;100.00;99955.41;5079015;28;20043;-75
2024/02/13 06:49:24;;;;;;;2.17;1.10;;;;;;;3.01;100.00;99965.31;5112332;28;20547;-75
2024/02/13 06:51:50;;;;;;;1.20;1.10;;;;;;;3.07;100.00;99956.78;5095762;28;20039;-74
2024/02/13 06:54:18;;;;;;;1.42;1.25;;;;;;;3.15;100.00;99956.00;5078704;28;20035;-75
2024/02/13 06:56:44;;;;;;;1.25;1.15;;;;;;;3.22;100.00;99951.78;5112313;28;20483;-75
2024/02/13 06:59:10;;;;;;;1.58;1.10;;;;;;;3.19;100.00;99936.97;5078563;28;20036;-75
2024/02/13 07:01:36;;;;;;;2.10;1.20;;;;;;;3.24;100.00;99947.16;5095141;28;20024;-74
2024/02/13 07:04:01;;;;;;;1.92;0.98;;;;;;;3.23;100.00;99942.84;5078586;28;20032;-75
2024/02/13 07:06:27;;;;;;;5.07;1.45;;;;;;;3.22;100.00;99944.66;5098620;28;20039;-75
2024/02/13 07:08:52;;;;;;;1.67;1.02;;;;;;;3.22;100.00;99943.81;5082098;28;20039;-75
2024/02/13 07:11:18;;;;;;;1.10;1.00;;;;;;;3.21;100.00;99939.50;5098997;28;20034;-75
2024/02/13 07:13:52;;;;;;;5.53;1.10;;;;;;;3.22;100.00;99935.84;5115819;28;20031;-74
2024/02/13 07:16:18;;;;;;;2.38;1.38;;;;;;;3.25;100.00;99941.69;5082155;28;20099;-75
2024/02/13 07:18:43;;;;;;;4.05;1.13;;;;;;;3.31;100.00;99937.63;5082114;28;20039;-74
2024/02/13 07:21:10;;;;;;;1.35;0.90;;;;;;;3.35;100.00;99948.78;5081717;28;20045;-75
2024/02/13 07:23:36;;;;;;;1.73;1.15;;;;;;;3.37;100.00;99936.19;5099002;28;20130;-75
2024/02/13 07:26:02;;;;;;;0.85;0.85;;;;;;;3.40;100.00;99938.53;5081636;28;20119;-74
2024/02/13 07:28:28;;;;;;;3.10;1.50;;;;;;;3.41;100.00;99933.06;5098701;28;20450;-75
2024/02/13 07:30:54;;;;;;;1.90;1.17;;;;;;;3.43;100.00;99932.91;5081960;28;20552;-74
2024/02/13 07:33:20;;;;;;;1.02;0.93;;;;;;;3.47;100.00;99931.66;5065178;28;20472;-75
2024/02/13 07:35:46;;;;;;;5.32;1.10;;;;;;;3.50;100.00;99929.53;5115457;28;20098;-74
2024/02/13 07:38:13;;;;;;;1.58;0.70;;;;;;;3.50;100.00;99928.69;5098760;28;20111;-74
2024/02/13 07:40:38;;;;;;;1.70;1.20;;;;;;;3.50;100.00;99928.69;5081764;28;20531;-75
2024/02/13 07:43:06;;;;;;;0.95;0.93;;;;;;;3.51;100.00;99927.69;5098453;28;20502;-75
2024/02/13 07:45:32;;;;;;;1.25;0.93;;;;;;;3.51;100.00;99922.38;5116717;27;20062;-75
2024/02/13 07:48:10;;;;;;;0.68;0.65;;;;;;;3.52;100.00;99921.41;5100104;28;20039;-75
2024/02/13 07:50:37;;;;;;;1.42;0.90;;;;;;;3.53;100.00;99926.56;5115040;28;20034;-75
2024/02/13 07:53:04;;;;;;;2.25;0.95;;;;;;;3.57;100.00;99924.41;5081562;28;20035;-75
2024/02/13 07:55:36;;;;;;;3.70;1.17;;;;;;;3.61;100.00;99925.81;5098231;28;20110;-75
2024/02/13 07:58:03;;;;;;;1.10;0.98;;;;;;;3.59;100.00;99922.44;5081744;28;20040;-74
2024/02/13 08:00:29;;;;;;;1.60;1.27;;;;;;;3.59;100.00;99927.78;5114610;28;20520;-75
2024/02/13 08:02:55;;;;;;;1.58;1.00;;;;;;;3.55;100.00;99914.91;5097857;28;20494;-75
2024/02/13 08:05:21;;;;;;;6.07;1.25;;;;;;;3.52;100.00;99916.91;5080890;28;20048;-75
2024/02/13 08:07:48;;;;;;;2.10;1.10;;;;;;;3.47;100.00;99913.88;5081056;28;20455;-75
2024/02/13 08:10:13;;;;;;;0.95;0.90;;;;;;;3.47;100.00;99913.88;5081171;28;20451;-75
2024/02/13 08:12:39;;;;;;;2.90;1.42;;;;;;;3.46;100.00;99919.34;5080800;28;20471;-75
2024/02/13 08:15:06;;;;;;;2.80;1.23;;;;;;;3.43;100.00;99919.63;5080990;28;20391;-75
2024/02/13 08:17:33;;;;;;;1.73;1.45;;;;;;;3.38;100.00;99912.09;5096495;28;20032;-75
2024/02/13 08:20:00;;;;;;;0.95;0.85;;;;;;;3.36;100.00;99914.09;5114697;28;20076;-75
2024/02/13 08:22:26;;;;;;;3.08;1.25;;;;;;;3.33;100.00;99917.03;5080631;28;20047;-75
2024/02/13 08:24:52;;;;;;;1.83;1.30;;;;;;;3.30;100.00;99912.84;5098021;28;20036;-75
2024/02/13 08:27:18;;;;;;;1.40;1.30;;;;;;;3.28;100.00;99906.88;5080768;28;20533;-75
2024/02/13 08:29:44;;;;;;;2.05;1.38;;;;;;;3.27;100.00;99913.16;5080508;28;20028;-74
2024/02/13 08:32:10;;;;;;;6.10;0.90;;;;;;;3.26;100.00;99914.16;5097446;28;20072;-75
2024/02/13 08:34:36;;;;;;;3.92;1.17;;;;;;;3.19;100.00;99915.72;5080668;28;20040;-75
2024/02/13 08:37:03;;;;;;;1.20;1.10;;;;;;;3.19;100.00;99920.22;5097023;28;20044;-75
2024/02/13 08:39:29;;;;;;;1.60;1.05;;;;;;;3.28;100.00;99916.66;5113758;28;20061;-75
2024/02/13 08:41:55;;;;;;;1.35;1.25;;;;;;;3.41;100.00;99918.94;5097229;28;20028;-75
2024/02/13 08:44:22;;;;;;;2.05;1.35;;;;;;;3.55;100.00;99914.91;5096922;28;20027;-74
2024/02/13 08:46:50;;;;;;;3.03;1.30;;;;;;;3.73;100.00;99908.66;5096706;28;20044;-75
2024/02/13 08:49:16;;;;;;;1.20;1.08;;;;;;;3.99;100.00;99907.00;5080197;28;20395;-75
2024/02/13 08:51:42;;;;;;;1.77;1.50;;;;;;;4.31;100.00;99912.59;5097053;28;20031;-75
2024/02/13 08:54:11;;;;;;;2.58;1.33;;;;;;;4.58;100.00;99906.25;5079866;28;20073;-75
2024/02/13 08:56:40;;;;;;;2.33;1.30;;;;;;;4.80;100.00;99910.19;5097639;28;20027;-75
2024/02/13 08:59:08;;;;;;;4.60;1.70;;;;;;;4.99;100.00;99910.94;5080033;28;20475;-75
2024/02/13 09:01:34;;;;;;;4.32;1.70;;;;;;;5.13;100.00;99904.16;5096936;28;20080;-75
2024/02/13 09:04:01;;;;;;;2.83;1.45;;;;;;;5.34;100.00;99915.22;5095028;28;20039;-75
2024/02/13 09:06:27;;;;;;;1.52;1.33;;;;;;;5.49;100.00;99902.09;5077706;28;20031;-74
2024/02/13 09:08:54;;;;;;;4.03;1.42;;;;;;;5.59;100.00;99905.44;5111352;28;20039;-74
2024/02/13 09:11:20;;;;;;;3.10;1.20;;;;;;;5.65;100.00;99910.13;5111261;28;20104;-75
2024/02/13 09:13:46;;;;;;;2.28;1.70;;;;;;;5.73;100.00;99896.78;5077640;28;20042;-75
2024/02/13 09:16:12;;;;;;;2.15;1.42;;;;;;;5.78;100.00;99890.13;5077270;28;20039;-75
2024/02/13 09:18:38;;;;;;;1.50;1.27;;;;;;;5.76;100.00;99894.78;5094393;28;20395;-74
2024/02/13 09:21:06;;;;;;;3.60;1.10;;;;;;;5.70;100.00;99893.63;5096731;28;20099;-75
2024/02/13 09:23:33;;;;;;;2.17;0.95;;;;;;;5.68;100.00;99893.78;5096667;28;20044;-74
2024/02/13 09:25:59;;;;;;;2.05;1.25;;;;;;;5.68;100.00;99890.28;5096250;28;20115;-75
2024/02/13 09:28:28;;;;;;;1.73;1.08;;;;;;;5.61;100.00;99890.13;5079793;28;20582;-75
2024/02/13 09:30:54;;;;;;;1.88;1.00;;;;;;;5.57;100.00;99885.28;5079954;28;20200;-74
2024/02/13 09:33:21;;;;;;;1.50;1.02;;;;;;;5.60;100.00;99877.78;5079504;28;20038;-75
2024/02/13 09:35:50;;;;;;;2.83;1.20;;;;;;;5.61;100.00;99874.13;5113109;28;20490;-75
2024/02/13 09:38:16;;;;;;;2.75;1.10;;;;;;;5.76;100.00;99876.94;5113201;28;20028;-76
2024/02/13 09:40:43;;;;;;;4.47;1.52;;;;;;;5.80;100.00;99880.97;5079596;28;20486;-75
2024/02/13 09:43:09;;;;;;;1.65;1.00;;;;;;;5.85;100.00;99881.28;5096435;28;20023;-75
2024/02/13 09:45:39;;;;;;;2.78;1.20;;;;;;;6.01;100.00;99875.16;5079444;28;20036;-75
2024/02/13 09:48:13;;;;;;;2.28;1.27;;;;;;;6.22;100.00;99863.09;5079611;28;20040;-75
2024/02/13 09:50:42;;;;;;;3.33;1.13;;;;;;;6.33;100.00;99862.75;5096920;28;20038;-75
2024/02/13 09:53:27;;;;;;;4.13;1.40;;;;;;;6.41;100.00;99864.59;5079285;28;20122;-75
2024/02/13 09:55:57;;;;;;;1.45;0.95;;;;;;;6.46;100.00;99863.06;5096043;28;20038;-76
2024/02/13 09:58:23;;;;;;;1.63;1.17;;;;;;;6.48;100.00;99863.69;5079892;28;20039;-76
2024/02/13 10:00:50;;;;;;;1.33;1.20;;;;;;;6.48;100.00;99857.53;5096054;28;20035;-75
2024/02/13 10:03:16;;;;;;;1.70;1.20;;;;;;;6.43;100.00;99866.09;5078991;28;20464;-76
2024/02/13 10:05:42;;;;;;;3.10;1.30;;;;;;;6.44;100.00;99861.56;5080086;28;20046;-75
2024/02/13 10:08:08;;;;;;;1.45;1.00;;;;;;;6.46;100.00;99863.06;5063332;28;20044;-75
2024/02/13 10:10:34;;;;;;;3.30;1.20;;;;;;;6.58;100.00;99861.69;5078794;28;20197;-76
2024/02/13 10:13:03;;;;;;;2.15;1.17;;;;;;;6.70;100.00;99861.31;5079209;28;20035;-75
2024/02/13 10:15:45;;;;;;;6.22;1.52;;;;;;;6.70;100.00;99862.16;5112729;28;20067;-76
2024/02/13 10:18:13;;;;;;;3.17;1.08;;;;;;;6.73;100.00;99858.31;5095903;28;20040;-76
2024/02/13 10:20:39;;;;;;;2.45;1.08;;;;;;;6.84;100.00;99865.94;5112599;28;20108;-75
2024/02/13 10:23:06;;;;;;;2.95;1.23;;;;;;;6.98;100.00;99859.00;5112808;28;20036;-75
2024/02/13 10:25:33;;;;;;;2.42;1.15;;;;;;;7.14;100.00;99866.13;5079032;28;20042;-76
2024/02/13 10:28:02;;;;;;;1.95;1.20;;;;;;;7.18;100.00;99862.09;5112575;28;20118;-74
2024/02/13 10:30:32;;;;;;;1.63;1.10;;;;;;;7.15;100.00;99849.09;5077671;28;20101;-74
2024/02/13 10:33:00;;;;;;;1.13;0.85;;;;;;;7.24;100.00;99848.03;5094089;28;20494;-74
2024/02/13 10:35:29;;;;;;;1.42;1.20;;;;;;;7.25;100.00;99855.88;5060005;28;20066;-75
2024/02/13 10:38:04;;;;;;;1.50;0.82;;;;;;;7.26;100.00;99854.84;5094588;28;20059;-76
2024/02/13 10:40:30;;;;;;;1.13;0.95;;;;;;;7.30;100.00;99857.16;5078723;28;20027;-75
2024/02/13 10:46:31;;;;;;;0.98;0.80;;;;;;;7.05;100.00;99842.09;5109969;28;20093;-76
2024/02/13 10:49:03;;;;;;;1.40;0.90;;;;;;;7.00;100.00;99847.16;5097151;28;20032;-75
2024/02/13 10:51:32;;;;;;;1.23;0.98;;;;;;;7.06;100.00;99850.94;5082354;28;20028;-75
2024/02/13 10:54:04;;;;;;;1.25;1.10;;;;;;;7.16;100.00;99853.41;5082692;28;20046;-74
2024/02/13 10:56:34;;;;;;;1.43;1.10;;;;;;;7.19;100.00;99842.38;5099846;28;20039;-75
2024/02/13 10:59:01;;;;;;;2.28;1.10;;;;;;;7.21;100.00;99838.50;5082415;28;20293;-74
2024/02/13 11:01:31;;;;;;;2.35;1.10;;;;;;;7.36;100.00;99835.91;5099297;28;20100;-74
2024/02/13 11:04:00;;;;;;;0.93;0.90;;;;;;;7.43;100.00;99831.50;5098758;28;20032;-75
2024/02/13 11:06:26;;;;;;;1.10;1.00;;;;;;;7.44;100.00;99835.03;5082328;28;20066;-74
2024/02/13 11:08:52;;;;;;;1.27;0.98;;;;;;;7.48;100.00;99822.94;5081744;28;20066;-75
2024/02/13 11:11:21;;;;;;;1.90;1.15;;;;;;;7.59;100.00;99829.72;5081792;28;20071;-74
2024/02/13 11:13:48;;;;;;;1.10;1.00;;;;;;;7.73;100.00;99831.63;5099218;28;20122;-76
2024/02/13 11:16:14;;;;;;;2.13;0.80;;;;;;;7.81;100.00;99831.56;5081659;28;20043;-75
2024/02/13 11:19:03;;;;;;;2.53;1.02;;;;;;;7.81;100.00;99831.56;5101133;28;20031;-76
2024/02/13 11:21:28;;;;;;;2.20;1.20;;;;;;;7.72;100.00;99828.09;5098982;28;20038;-75
2024/02/13 11:24:22;;;;;;;3.67;1.08;;;;;;;7.70;100.00;99827.47;5115122;28;20380;-75
2024/02/13 11:26:47;;;;;;;;;;;;;;;7.85;100.00;99824.00;5082304;28;20105;-75
2024/02/13 11:29:21;;;;;;;2.10;0.90;;;;;;;7.92;100.00;99824.94;5081621;28;19920;-76
2024/02/13 11:31:58;;;;;;;2.50;1.05;;;;;;;7.93;100.00;99822.06;5082356;28;20038;-76
2024/02/13 11:34:43;;;;;;;1.90;0.98;;;;;;;7.96;100.00;99818.19;5098759;28;20034;-75
2024/02/13 11:37:20;;;;;;;1.13;0.80;;;;;;;8.16;100.00;99818.50;5115546;28;20052;-75
2024/02/13 11:39:47;;;;;;;3.95;1.02;;;;;;;8.30;100.00;99816.84;5098410;28;20102;-75